UAE867 OOMS-OMDB
Flight info
| Callsign | UAE867 |
|---|---|
| Flight time | 0h 37m |
| Altitude | 20000 |
| Route | ITLAK DCT MIXAM T508 SOLUD P574 IMPED |
| Aircraft | A359/H-SDE2E3GHIJ3J4J5LM1ORWXY/LB1D1 |
Departure
| Time | 2026-05-04 21:21 |
|---|---|
| Airport | Muscat International Airport (OOMS) |
Arrival
| Time | 2026-05-04 21:59 |
|---|---|
| Airport | Dubai International Airport (OMDB) |
| Time | Latitude | Longitude | Altitude | Speed | Heading |
|---|---|---|---|---|---|
| 2026-05-04 20:45 | 23.60159 | 58.28329 | 50 ft | 0 kts | 175° |
| 2026-05-04 21:10 | 23.60164 | 58.28328 | 51 ft | 2 kts | 175° |
| 2026-05-04 21:10 | 23.60182 | 58.28327 | 46 ft | 3 kts | 175° |
| 2026-05-04 21:10 | 23.60202 | 58.28325 | 47 ft | 3 kts | 175° |
| 2026-05-04 21:11 | 23.60223 | 58.28323 | 45 ft | 3 kts | 175° |
| 2026-05-04 21:11 | 23.60238 | 58.28321 | 45 ft | 2 kts | 173° |
| 2026-05-04 21:11 | 23.60255 | 58.28317 | 45 ft | 3 kts | 135° |
| 2026-05-04 21:11 | 23.60261 | 58.28302 | 47 ft | 3 kts | 85° |
| 2026-05-04 21:12 | 23.60259 | 58.28282 | 48 ft | 2 kts | 84° |
| 2026-05-04 21:12 | 23.60259 | 58.28279 | 47 ft | 0 kts | 85° |
| 2026-05-04 21:14 | 23.60260 | 58.28293 | 46 ft | 5 kts | 84° |
| 2026-05-04 21:14 | 23.60267 | 58.28363 | 48 ft | 10 kts | 84° |
| 2026-05-04 21:14 | 23.60273 | 58.28421 | 45 ft | 6 kts | 77° |
| 2026-05-04 21:14 | 23.60309 | 58.28451 | 48 ft | 7 kts | 14° |
| 2026-05-04 21:15 | 23.60367 | 58.28449 | 47 ft | 10 kts | 356° |
| 2026-05-04 21:15 | 23.60444 | 58.28443 | 47 ft | 11 kts | 354° |
| 2026-05-04 21:15 | 23.60493 | 58.28437 | 47 ft | 3 kts | 354° |
| 2026-05-04 21:15 | 23.60523 | 58.28441 | 47 ft | 5 kts | 22° |
| 2026-05-04 21:16 | 23.60541 | 58.28476 | 49 ft | 6 kts | 73° |
| 2026-05-04 21:16 | 23.60549 | 58.28532 | 49 ft | 9 kts | 82° |
| 2026-05-04 21:16 | 23.60558 | 58.28609 | 49 ft | 12 kts | 83° |
| 2026-05-04 21:16 | 23.60564 | 58.28704 | 46 ft | 14 kts | 86° |
| 2026-05-04 21:17 | 23.60573 | 58.28817 | 49 ft | 16 kts | 84° |
| 2026-05-04 21:17 | 23.60584 | 58.28949 | 47 ft | 19 kts | 84° |
| 2026-05-04 21:17 | 23.60596 | 58.29097 | 49 ft | 21 kts | 85° |
| 2026-05-04 21:17 | 23.60609 | 58.29262 | 51 ft | 23 kts | 85° |
| 2026-05-04 21:18 | 23.60619 | 58.29392 | 48 ft | 12 kts | 85° |
| 2026-05-04 21:18 | 23.60627 | 58.29482 | 47 ft | 6 kts | 85° |
| 2026-05-04 21:18 | 23.60631 | 58.29532 | 46 ft | 8 kts | 85° |
| 2026-05-04 21:18 | 23.60638 | 58.29581 | 46 ft | 7 kts | 70° |
| 2026-05-04 21:19 | 23.60659 | 58.29601 | 45 ft | 4 kts | 28° |
| 2026-05-04 21:19 | 23.60700 | 58.29605 | 46 ft | 8 kts | 356° |
| 2026-05-04 21:19 | 23.60730 | 58.29604 | 45 ft | 5 kts | 358° |
| 2026-05-04 21:19 | 23.60739 | 58.29603 | 46 ft | 2 kts | 358° |
| 2026-05-04 21:20 | 23.60766 | 58.29602 | 45 ft | 8 kts | 356° |
| 2026-05-04 21:20 | 23.60839 | 58.29594 | 46 ft | 12 kts | 351° |
| 2026-05-04 21:20 | 23.60890 | 58.29531 | 45 ft | 12 kts | 275° |
| 2026-05-04 21:20 | 23.60885 | 58.29438 | 50 ft | 18 kts | 265° |
| 2026-05-04 21:21 | 23.60856 | 58.29065 | 47 ft | 87 kts | 265° |
| 2026-05-04 21:21 | 23.60782 | 58.28152 | 45 ft | 153 kts | 265° |
| 2026-05-04 21:21 | 23.60688 | 58.26827 | 291 ft | 190 kts | 263° |
| 2026-05-04 21:21 | 23.60559 | 58.25319 | 773 ft | 211 kts | 263° |
| 2026-05-04 21:22 | 23.60357 | 58.23667 | 1320 ft | 228 kts | 261° |
| 2026-05-04 21:22 | 23.60189 | 58.21868 | 1615 ft | 248 kts | 264° |
| 2026-05-04 21:22 | 23.60061 | 58.19937 | 2031 ft | 261 kts | 265° |
| 2026-05-04 21:22 | 23.59922 | 58.17933 | 2534 ft | 269 kts | 264° |
| 2026-05-04 21:23 | 23.59770 | 58.15877 | 3136 ft | 273 kts | 264° |
| 2026-05-04 21:23 | 23.59610 | 58.13805 | 3734 ft | 276 kts | 264° |
| 2026-05-04 21:23 | 23.59444 | 58.11710 | 4396 ft | 279 kts | 264° |
| 2026-05-04 21:23 | 23.59275 | 58.09595 | 4987 ft | 282 kts | 264° |
| 2026-05-04 21:24 | 23.59102 | 58.07463 | 5601 ft | 283 kts | 264° |
| 2026-05-04 21:24 | 23.59058 | 58.05313 | 6198 ft | 285 kts | 276° |
| 2026-05-04 21:24 | 23.59694 | 58.03277 | 6763 ft | 286 kts | 301° |
| 2026-05-04 21:24 | 23.60856 | 58.01519 | 7368 ft | 286 kts | 309° |
| 2026-05-04 21:25 | 23.62200 | 57.99917 | 8000 ft | 286 kts | 314° |
| 2026-05-04 21:25 | 23.63630 | 57.98396 | 8576 ft | 288 kts | 316° |
| 2026-05-04 21:25 | 23.65091 | 57.96894 | 9168 ft | 289 kts | 316° |
| 2026-05-04 21:25 | 23.66548 | 57.95385 | 9740 ft | 290 kts | 315° |
| 2026-05-04 21:26 | 23.67988 | 57.93860 | 10209 ft | 295 kts | 315° |
| 2026-05-04 21:26 | 23.69426 | 57.92201 | 10458 ft | 307 kts | 310° |
| 2026-05-04 21:26 | 23.70836 | 57.90384 | 10662 ft | 320 kts | 309° |
| 2026-05-04 21:26 | 23.72280 | 57.88432 | 10874 ft | 332 kts | 308° |
| 2026-05-04 21:27 | 23.73713 | 57.86445 | 11066 ft | 343 kts | 308° |
| 2026-05-04 21:27 | 23.75197 | 57.84367 | 11350 ft | 350 kts | 308° |
| 2026-05-04 21:27 | 23.76704 | 57.82256 | 11694 ft | 355 kts | 308° |
| 2026-05-04 21:27 | 23.78235 | 57.80116 | 12059 ft | 359 kts | 308° |
| 2026-05-04 21:28 | 23.79776 | 57.77968 | 12492 ft | 361 kts | 308° |
| 2026-05-04 21:28 | 23.81330 | 57.75806 | 12913 ft | 363 kts | 308° |
| 2026-05-04 21:28 | 23.82896 | 57.73631 | 13327 ft | 365 kts | 308° |
| 2026-05-04 21:28 | 23.84467 | 57.71450 | 13708 ft | 367 kts | 308° |
| 2026-05-04 21:29 | 23.86046 | 57.69257 | 14090 ft | 368 kts | 308° |
| 2026-05-04 21:29 | 23.87630 | 57.67057 | 14520 ft | 368 kts | 308° |
| 2026-05-04 21:29 | 23.89213 | 57.64856 | 14905 ft | 369 kts | 308° |
| 2026-05-04 21:29 | 23.90800 | 57.62649 | 15298 ft | 370 kts | 308° |
| 2026-05-04 21:30 | 23.92392 | 57.60433 | 15688 ft | 371 kts | 309° |
| 2026-05-04 21:30 | 23.93987 | 57.58212 | 16085 ft | 372 kts | 309° |
| 2026-05-04 21:30 | 23.95588 | 57.55982 | 16487 ft | 374 kts | 309° |
| 2026-05-04 21:30 | 23.97194 | 57.53745 | 16899 ft | 374 kts | 309° |
| 2026-05-04 21:31 | 24.00415 | 57.49252 | 17696 ft | 377 kts | 309° |
| 2026-05-04 21:31 | 24.02034 | 57.46991 | 18088 ft | 378 kts | 309° |
| 2026-05-04 21:31 | 24.03659 | 57.44722 | 18413 ft | 380 kts | 309° |
| 2026-05-04 21:32 | 24.05288 | 57.42446 | 18728 ft | 381 kts | 308° |
| 2026-05-04 21:32 | 24.06930 | 57.40150 | 19050 ft | 383 kts | 308° |
| 2026-05-04 21:32 | 24.08574 | 57.37851 | 19368 ft | 385 kts | 308° |
| 2026-05-04 21:32 | 24.10233 | 57.35530 | 19624 ft | 389 kts | 308° |
| 2026-05-04 21:33 | 24.11896 | 57.33201 | 19721 ft | 387 kts | 308° |
| 2026-05-04 21:33 | 24.13553 | 57.30879 | 19744 ft | 387 kts | 308° |
| 2026-05-04 21:33 | 24.15209 | 57.28559 | 19748 ft | 387 kts | 308° |
| 2026-05-04 21:33 | 24.16865 | 57.26237 | 19814 ft | 388 kts | 308° |
| 2026-05-04 21:34 | 24.18524 | 57.23910 | 19750 ft | 387 kts | 308° |
| 2026-05-04 21:34 | 24.20181 | 57.21585 | 19741 ft | 387 kts | 308° |
| 2026-05-04 21:34 | 24.21834 | 57.19264 | 19741 ft | 387 kts | 308° |
| 2026-05-04 21:34 | 24.23489 | 57.16939 | 19741 ft | 387 kts | 308° |
| 2026-05-04 21:35 | 24.25144 | 57.14614 | 19746 ft | 387 kts | 308° |
| 2026-05-04 21:35 | 24.26797 | 57.12290 | 19747 ft | 387 kts | 308° |
| 2026-05-04 21:35 | 24.28450 | 57.09966 | 19741 ft | 387 kts | 307° |
| 2026-05-04 21:35 | 24.30106 | 57.07635 | 19744 ft | 388 kts | 307° |
| 2026-05-04 21:36 | 24.31763 | 57.05302 | 19750 ft | 388 kts | 307° |
| 2026-05-04 21:36 | 24.33422 | 57.02966 | 19746 ft | 388 kts | 307° |
| 2026-05-04 21:36 | 24.35080 | 57.00629 | 19744 ft | 388 kts | 307° |
| 2026-05-04 21:36 | 24.36739 | 56.98290 | 19739 ft | 388 kts | 307° |
| 2026-05-04 21:37 | 24.38396 | 56.95952 | 19735 ft | 388 kts | 307° |
| 2026-05-04 21:37 | 24.40054 | 56.93613 | 19737 ft | 388 kts | 307° |
| 2026-05-04 21:37 | 24.41709 | 56.91277 | 19727 ft | 388 kts | 307° |
| 2026-05-04 21:37 | 24.43365 | 56.88937 | 19723 ft | 388 kts | 307° |
| 2026-05-04 21:38 | 24.45011 | 56.86611 | 19722 ft | 388 kts | 307° |
| 2026-05-04 21:38 | 24.46665 | 56.84272 | 19656 ft | 385 kts | 307° |
| 2026-05-04 21:38 | 24.48277 | 56.81993 | 19047 ft | 384 kts | 307° |
| 2026-05-04 21:38 | 24.49956 | 56.79615 | 18434 ft | 396 kts | 308° |
| 2026-05-04 21:39 | 24.51635 | 56.77236 | 17816 ft | 402 kts | 308° |
| 2026-05-04 21:39 | 24.53350 | 56.74807 | 17201 ft | 401 kts | 308° |
| 2026-05-04 21:39 | 24.55054 | 56.72395 | 16779 ft | 399 kts | 308° |
| 2026-05-04 21:39 | 24.56750 | 56.69997 | 16350 ft | 396 kts | 308° |
| 2026-05-04 21:40 | 24.58459 | 56.67582 | 15932 ft | 394 kts | 308° |
| 2026-05-04 21:40 | 24.60113 | 56.65242 | 15534 ft | 392 kts | 308° |
| 2026-05-04 21:40 | 24.61784 | 56.62878 | 15175 ft | 391 kts | 308° |
| 2026-05-04 21:40 | 24.63446 | 56.60524 | 14789 ft | 389 kts | 308° |
| 2026-05-04 21:41 | 24.65101 | 56.58180 | 14388 ft | 388 kts | 308° |
| 2026-05-04 21:41 | 24.66750 | 56.55843 | 14016 ft | 386 kts | 308° |
| 2026-05-04 21:41 | 24.68396 | 56.53509 | 13726 ft | 386 kts | 308° |
| 2026-05-04 21:41 | 24.70035 | 56.51182 | 13387 ft | 384 kts | 308° |
| 2026-05-04 21:42 | 24.71665 | 56.48866 | 13010 ft | 382 kts | 308° |
| 2026-05-04 21:42 | 24.73286 | 56.46561 | 12642 ft | 380 kts | 308° |
| 2026-05-04 21:42 | 24.74900 | 56.44265 | 12265 ft | 379 kts | 308° |
| 2026-05-04 21:42 | 24.76510 | 56.41974 | 11906 ft | 377 kts | 308° |
| 2026-05-04 21:43 | 24.78106 | 56.39702 | 11560 ft | 371 kts | 308° |
| 2026-05-04 21:43 | 24.79626 | 56.37527 | 11178 ft | 345 kts | 308° |
| 2026-05-04 21:43 | 24.81031 | 56.35476 | 10877 ft | 327 kts | 307° |
| 2026-05-04 21:43 | 24.82342 | 56.33536 | 10552 ft | 306 kts | 307° |
| 2026-05-04 21:44 | 24.83585 | 56.31687 | 10301 ft | 299 kts | 307° |
| 2026-05-04 21:44 | 24.84827 | 56.29838 | 10057 ft | 300 kts | 307° |
| 2026-05-04 21:44 | 24.86060 | 56.28002 | 9802 ft | 297 kts | 307° |
| 2026-05-04 21:44 | 24.87271 | 56.26169 | 9528 ft | 295 kts | 305° |
| 2026-05-04 21:45 | 24.88349 | 56.24242 | 9274 ft | 295 kts | 302° |
| 2026-05-04 21:45 | 24.89378 | 56.22298 | 9004 ft | 294 kts | 301° |
| 2026-05-04 21:45 | 24.90393 | 56.20351 | 8745 ft | 292 kts | 301° |
| 2026-05-04 21:45 | 24.91398 | 56.18410 | 8513 ft | 291 kts | 301° |
| 2026-05-04 21:46 | 24.92389 | 56.16490 | 8258 ft | 284 kts | 301° |
| 2026-05-04 21:46 | 24.93350 | 56.14623 | 8007 ft | 276 kts | 301° |
| 2026-05-04 21:46 | 24.94286 | 56.12803 | 7743 ft | 269 kts | 301° |
| 2026-05-04 21:46 | 24.95203 | 56.11019 | 7528 ft | 267 kts | 301° |
| 2026-05-04 21:47 | 24.96105 | 56.09267 | 7309 ft | 266 kts | 301° |
| 2026-05-04 21:47 | 24.97025 | 56.07499 | 7067 ft | 265 kts | 303° |
| 2026-05-04 21:47 | 24.97941 | 56.05731 | 6848 ft | 274 kts | 292° |
| 2026-05-04 21:47 | 24.98372 | 56.03659 | 6633 ft | 276 kts | 278° |
| 2026-05-04 21:48 | 24.98549 | 56.01593 | 6514 ft | 267 kts | 276° |
| 2026-05-04 21:48 | 24.98678 | 55.99562 | 6396 ft | 266 kts | 275° |
| 2026-05-04 21:48 | 24.98801 | 55.97536 | 6295 ft | 265 kts | 275° |
| 2026-05-04 21:48 | 24.98924 | 55.95508 | 6167 ft | 265 kts | 275° |
| 2026-05-04 21:49 | 24.99046 | 55.93485 | 6057 ft | 264 kts | 275° |
| 2026-05-04 21:49 | 24.99169 | 55.91466 | 5942 ft | 264 kts | 275° |
| 2026-05-04 21:49 | 24.99291 | 55.89449 | 5815 ft | 263 kts | 275° |
| 2026-05-04 21:49 | 24.99413 | 55.87437 | 5710 ft | 263 kts | 275° |
| 2026-05-04 21:50 | 24.99495 | 55.86083 | 5660 ft | 262 kts | 275° |
| 2026-05-04 21:50 | 24.99680 | 55.83439 | 5605 ft | 261 kts | 279° |
| 2026-05-04 21:50 | 24.99951 | 55.82178 | 5565 ft | 260 kts | 291° |
| 2026-05-04 21:50 | 25.00752 | 55.80409 | 5520 ft | 258 kts | 302° |
| 2026-05-04 21:51 | 25.01993 | 55.78190 | 5458 ft | 257 kts | 304° |
| 2026-05-04 21:51 | 25.02623 | 55.77084 | 5415 ft | 256 kts | 304° |
| 2026-05-04 21:51 | 25.03566 | 55.75423 | 5381 ft | 255 kts | 304° |
| 2026-05-04 21:51 | 25.04502 | 55.73764 | 5316 ft | 255 kts | 304° |
| 2026-05-04 21:52 | 25.05434 | 55.72105 | 5282 ft | 255 kts | 303° |
| 2026-05-04 21:52 | 25.06676 | 55.69889 | 5087 ft | 249 kts | 303° |
| 2026-05-04 21:52 | 25.07262 | 55.68839 | 5027 ft | 241 kts | 303° |
| 2026-05-04 21:52 | 25.08111 | 55.67315 | 5002 ft | 225 kts | 304° |
| 2026-05-04 21:53 | 25.08903 | 55.65899 | 4998 ft | 210 kts | 305° |
| 2026-05-04 21:53 | 25.09725 | 55.64591 | 4979 ft | 207 kts | 306° |
| 2026-05-04 21:53 | 25.10478 | 55.63249 | 4804 ft | 207 kts | 302° |
| 2026-05-04 21:53 | 25.11201 | 55.61882 | 4552 ft | 206 kts | 303° |
| 2026-05-04 21:54 | 25.11947 | 55.60528 | 4224 ft | 207 kts | 303° |
| 2026-05-04 21:54 | 25.12705 | 55.59168 | 3906 ft | 209 kts | 303° |
| 2026-05-04 21:54 | 25.13460 | 55.57802 | 3626 ft | 207 kts | 303° |
| 2026-05-04 21:54 | 25.14200 | 55.56461 | 3371 ft | 203 kts | 303° |
| 2026-05-04 21:55 | 25.14928 | 55.55147 | 3104 ft | 199 kts | 302° |
| 2026-05-04 21:55 | 25.15641 | 55.53858 | 2851 ft | 194 kts | 302° |
| 2026-05-04 21:55 | 25.16330 | 55.52612 | 2621 ft | 187 kts | 303° |
| 2026-05-04 21:55 | 25.16999 | 55.51405 | 2377 ft | 181 kts | 302° |
| 2026-05-04 21:56 | 25.17647 | 55.50234 | 2156 ft | 176 kts | 302° |
| 2026-05-04 21:56 | 25.18272 | 55.49104 | 1944 ft | 169 kts | 302° |
| 2026-05-04 21:56 | 25.18867 | 55.48029 | 1719 ft | 159 kts | 302° |
| 2026-05-04 21:56 | 25.19435 | 55.47003 | 1542 ft | 156 kts | 302° |
| 2026-05-04 21:57 | 25.19994 | 55.45995 | 1345 ft | 151 kts | 302° |
| 2026-05-04 21:57 | 25.20527 | 55.45032 | 1136 ft | 143 kts | 302° |
| 2026-05-04 21:57 | 25.21032 | 55.44118 | 968 ft | 141 kts | 302° |
| 2026-05-04 21:57 | 25.21544 | 55.43198 | 800 ft | 141 kts | 301° |
| 2026-05-04 21:58 | 25.22053 | 55.42277 | 635 ft | 140 kts | 299° |
| 2026-05-04 21:58 | 25.22553 | 55.41362 | 465 ft | 140 kts | 298° |
| 2026-05-04 21:58 | 25.23066 | 55.40445 | 303 ft | 141 kts | 297° |
| 2026-05-04 21:58 | 25.23577 | 55.39516 | 122 ft | 141 kts | 300° |
| 2026-05-04 21:59 | 25.24089 | 55.38602 | 31 ft | 138 kts | 299° |
| 2026-05-04 21:59 | 25.24474 | 55.37893 | 30 ft | 69 kts | 302° |
| 2026-05-04 21:59 | 25.24656 | 55.37562 | 29 ft | 40 kts | 301° |
| 2026-05-04 21:59 | 25.24728 | 55.37428 | 28 ft | 15 kts | 296° |
| 2026-05-04 22:00 | 25.24766 | 55.37315 | 30 ft | 17 kts | 285° |
| 2026-05-04 22:00 | 25.24784 | 55.37166 | 30 ft | 15 kts | 273° |
| 2026-05-04 22:00 | 25.24785 | 55.37087 | 29 ft | 10 kts | 273° |
| 2026-05-04 22:00 | 25.24790 | 55.37002 | 28 ft | 12 kts | 276° |
| 2026-05-04 22:01 | 25.24819 | 55.36915 | 28 ft | 9 kts | 298° |
| 2026-05-04 22:01 | 25.24847 | 55.36844 | 28 ft | 11 kts | 287° |
| 2026-05-04 22:01 | 25.24867 | 55.36762 | 28 ft | 9 kts | 283° |
| 2026-05-04 22:01 | 25.24886 | 55.36688 | 27 ft | 11 kts | 291° |
| 2026-05-04 22:02 | 25.24927 | 55.36600 | 27 ft | 13 kts | 301° |
| 2026-05-04 22:02 | 25.24980 | 55.36509 | 27 ft | 15 kts | 303° |
| 2026-05-04 22:02 | 25.25030 | 55.36421 | 27 ft | 14 kts | 302° |
| 2026-05-04 22:02 | 25.25086 | 55.36322 | 27 ft | 14 kts | 301° |
| 2026-05-04 22:03 | 25.25128 | 55.36243 | 27 ft | 12 kts | 301° |
| 2026-05-04 22:03 | 25.25166 | 55.36177 | 27 ft | 10 kts | 302° |
| 2026-05-04 22:03 | 25.25193 | 55.36130 | 27 ft | 4 kts | 302° |
| 2026-05-04 22:03 | 25.25202 | 55.36099 | 27 ft | 4 kts | 266° |
| 2026-05-04 22:04 | 25.25179 | 55.36071 | 27 ft | 6 kts | 220° |
| 2026-05-04 22:04 | 25.25138 | 55.36040 | 27 ft | 8 kts | 211° |
| 2026-05-04 22:04 | 25.25099 | 55.36015 | 27 ft | 5 kts | 211° |
| 2026-05-04 22:04 | 25.25086 | 55.36006 | 27 ft | 4 kts | 211° |
| 2026-05-04 22:05 | 25.25074 | 55.35998 | 27 ft | 3 kts | 212° |
| 2026-05-04 22:05 | 25.25060 | 55.35988 | 27 ft | 2 kts | 211° |
| 2026-05-04 22:05 | 25.25056 | 55.35985 | 27 ft | 0 kts | 211° |